Time;durP1;ratioP1;P1;durP2;ratioP2;P2;SDS_P1;SDS_P2;PMS_P1;PMS_P2;Temp;Humidity;BMP_temperature;BMP_pressure;BME280_temperature;BME280_humidity;BME280_pressure;Samples;Min_cycle;Max_cycle;Signal;HPM_P1;HPM_P2
2022/01/17 00:00:19;;;;;;;4.70;2.10;;;-3.40;94.80;;;;;;5055761;28;20028;-87
2022/01/17 00:02:49;;;;;;;2.97;2.08;;;-3.50;94.80;;;;;;5070473;28;20031;-88
2022/01/17 00:05:16;;;;;;;4.38;3.05;;;-3.50;94.90;;;;;;5073882;28;20005;-87
2022/01/17 00:07:42;;;;;;;9.52;2.50;;;-3.50;94.90;;;;;;5075729;28;20025;-87
2022/01/17 00:10:09;;;;;;;3.15;2.13;;;-3.60;95.00;;;;;;5057264;28;20041;-85
2022/01/17 00:12:38;;;;;;;5.32;2.92;;;-3.60;95.10;;;;;;5046697;28;20025;-88
2022/01/17 00:15:16;;;;;;;6.07;2.80;;;-3.50;95.20;;;;;;5043604;28;20091;-88
2022/01/17 00:17:44;;;;;;;;;;;-3.50;95.20;;;;;;5060842;28;20064;-86
2022/01/17 00:20:17;;;;;;;7.93;2.28;;;-3.50;95.10;;;;;;5069302;28;19905;-89
2022/01/17 00:22:47;;;;;;;4.20;2.90;;;-3.60;95.10;;;;;;5061110;28;20098;-86
2022/01/17 00:25:13;;;;;;;3.88;2.20;;;-3.60;95.20;;;;;;5058580;28;20025;-87
2022/01/17 00:27:39;;;;;;;7.93;1.88;;;-3.50;95.20;;;;;;5059669;28;20406;-86
2022/01/17 00:30:08;;;;;;;5.65;1.65;;;-3.50;95.30;;;;;;5058601;28;20036;-84
2022/01/17 00:32:35;;;;;;;5.60;1.95;;;-3.50;95.40;;;;;;5036172;28;20418;-85
2022/01/17 00:35:00;;;;;;;4.63;2.00;;;-3.50;95.30;;;;;;5054809;28;20025;-85
2022/01/17 00:37:26;;;;;;;3.60;1.70;;;-3.40;95.40;;;;;;5055208;28;20032;-85
2022/01/17 00:39:52;;;;;;;2.03;1.65;;;-3.30;95.40;;;;;;5042947;28;20029;-84
2022/01/17 00:42:18;;;;;;;5.63;1.90;;;-3.20;95.30;;;;;;5067395;28;20021;-86
2022/01/17 00:44:44;;;;;;;6.43;2.30;;;-3.10;95.10;;;;;;5064245;28;20087;-85
2022/01/17 00:47:10;;;;;;;4.85;2.08;;;-3.00;94.90;;;;;;5064815;28;20005;-88
2022/01/17 00:49:35;;;;;;;3.35;1.67;;;-2.90;94.70;;;;;;5067048;28;20041;-87
2022/01/17 00:52:02;;;;;;;2.97;1.60;;;-2.90;94.50;;;;;;5060006;28;20100;-88
2022/01/17 00:54:28;;;;;;;4.20;1.97;;;-2.80;94.20;;;;;;5057894;28;20025;-86
2022/01/17 00:56:54;;;;;;;5.07;2.35;;;-2.80;94.20;;;;;;5058951;28;20393;-87
2022/01/17 00:59:20;;;;;;;3.85;1.83;;;-2.80;94.00;;;;;;5058158;28;20029;-85
2022/01/17 01:01:46;;;;;;;5.32;2.15;;;-2.80;93.90;;;;;;5058430;28;20043;-88
2022/01/17 01:04:12;;;;;;;2.10;1.35;;;-2.80;93.80;;;;;;5056733;28;20069;-88
2022/01/17 01:06:39;;;;;;;5.78;2.38;;;-2.70;93.80;;;;;;5076186;28;20089;-89
2022/01/17 01:09:05;;;;;;;4.03;1.80;;;-2.60;93.70;;;;;;5064450;28;20104;-87
2022/01/17 01:11:31;;;;;;;6.57;3.28;;;-2.60;93.60;;;;;;5042235;28;20021;-86
2022/01/17 01:13:57;;;;;;;4.03;1.80;;;-2.60;93.50;;;;;;5061577;28;20025;-86
2022/01/17 01:16:31;;;;;;;2.78;1.60;;;-2.50;93.30;;;;;;5066757;28;20029;-86
2022/01/17 01:22:01;;;;;;;8.18;2.08;;;-2.50;93.10;;;;;;5055400;28;20506;-87
2022/01/17 01:29:59;;;;;;;6.15;2.03;;;-2.50;92.80;;;;;;5036467;28;20052;-87
2022/01/17 01:32:31;;;;;;;4.85;1.75;;;-2.60;92.60;;;;;;5035354;28;20032;-86
2022/01/17 01:35:00;;;;;;;5.72;1.73;;;-2.50;92.50;;;;;;5034197;28;20069;-85
2022/01/17 01:37:26;;;;;;;3.92;1.90;;;-2.50;92.50;;;;;;5035120;28;20040;-84
2022/01/17 01:39:53;;;;;;;9.02;2.88;;;-2.50;92.50;;;;;;5022743;28;20025;-84
2022/01/17 01:42:20;;;;;;;;;;;-2.40;92.50;;;;;;5048963;28;20018;-85
2022/01/17 01:44:52;;;;;;;5.68;1.70;;;-2.40;92.40;;;;;;5057693;28;19908;-85
2022/01/17 01:47:25;;;;;;;6.70;2.08;;;-2.50;92.20;;;;;;5036478;28;20041;-86
2022/01/17 01:49:51;;;;;;;3.28;1.60;;;-2.50;92.20;;;;;;5038002;28;20100;-88
2022/01/17 01:52:18;;;;;;;4.32;1.95;;;-2.40;92.20;;;;;;5057212;28;20025;-84
2022/01/17 01:54:44;;;;;;;4.47;1.80;;;-2.40;92.10;;;;;;5075805;28;20025;-83
2022/01/17 01:57:11;;;;;;;3.50;1.80;;;-2.40;92.10;;;;;;5055104;28;20074;-85
2022/01/17 01:59:37;;;;;;;3.75;2.05;;;-2.40;92.00;;;;;;5062099;28;20072;-88
2022/01/17 02:02:04;;;;;;;4.20;1.80;;;-2.40;92.00;;;;;;5062262;28;20025;-84
2022/01/17 02:04:30;;;;;;;3.75;1.48;;;-2.30;91.90;;;;;;5075409;28;20024;-85
2022/01/17 02:06:56;;;;;;;3.50;1.40;;;-2.30;91.80;;;;;;5069425;28;20033;-86
2022/01/17 02:09:24;;;;;;;2.55;1.58;;;-2.30;91.70;;;;;;5068146;28;20073;-86
2022/01/17 02:11:50;;;;;;;3.63;2.15;;;-2.30;91.60;;;;;;5065542;28;20028;-85
2022/01/17 02:14:16;;;;;;;5.37;2.10;;;-2.30;91.50;;;;;;5070311;28;20029;-84
2022/01/17 02:16:44;;;;;;;1.63;1.10;;;-2.30;91.50;;;;;;5060531;28;20017;-81
2022/01/17 02:19:12;;;;;;;3.85;2.15;;;-2.30;91.30;;;;;;5079353;28;20040;-85
2022/01/17 02:21:46;;;;;;;5.35;1.73;;;-2.40;91.30;;;;;;5075017;28;20136;-86
2022/01/17 02:24:18;;;;;;;4.35;1.75;;;-2.40;91.30;;;;;;5069335;28;20036;-85
2022/01/17 02:26:45;;;;;;;4.13;1.38;;;-2.40;91.30;;;;;;5043972;28;20090;-84
2022/01/17 02:29:12;;;;;;;2.10;1.65;;;-2.40;91.20;;;;;;5068401;28;20032;-88
2022/01/17 02:31:38;;;;;;;4.65;1.83;;;-2.40;91.20;;;;;;5068287;28;20024;-85
2022/01/17 02:34:04;;;;;;;4.75;1.80;;;-2.40;91.20;;;;;;5060281;28;20040;-85
2022/01/17 02:36:31;;;;;;;3.72;1.48;;;-2.40;91.10;;;;;;5066498;28;20104;-86
2022/01/17 02:38:57;;;;;;;6.45;2.28;;;-2.40;91.10;;;;;;5058400;28;20032;-85
2022/01/17 02:41:27;;;;;;;6.57;2.00;;;-2.40;91.20;;;;;;5066406;28;20098;-87
2022/01/17 02:43:52;;;;;;;3.53;2.10;;;-2.40;91.10;;;;;;5057040;28;20036;-87
2022/01/17 02:46:27;;;;;;;3.03;1.80;;;-2.40;91.10;;;;;;5057019;28;20021;-86
2022/01/17 02:48:56;;;;;;;5.78;1.92;;;-2.40;91.10;;;;;;5055649;28;20036;-86
2022/01/17 02:51:22;;;;;;;3.90;1.95;;;-2.50;91.00;;;;;;5036891;28;20393;-86
2022/01/17 02:53:48;;;;;;;6.28;1.98;;;-2.40;91.00;;;;;;5038665;28;20028;-87
2022/01/17 02:56:16;;;;;;;2.63;1.90;;;-2.40;91.10;;;;;;5038820;28;20124;-86
2022/01/17 02:58:42;;;;;;;6.38;1.85;;;-2.40;91.10;;;;;;5038724;28;20552;-87
2022/01/17 03:01:13;;;;;;;8.32;2.40;;;-2.40;91.10;;;;;;5056774;28;20397;-87
2022/01/17 03:03:41;;;;;;;3.22;2.20;;;-2.40;91.10;;;;;;5055998;28;20029;-85
2022/01/17 03:06:08;;;;;;;5.65;2.42;;;-2.40;91.10;;;;;;5009172;28;20450;-87
2022/01/17 03:08:34;;;;;;;5.45;1.90;;;-2.50;91.20;;;;;;5015483;28;20629;-88
2022/01/17 03:11:05;;;;;;;2.10;1.50;;;-2.40;91.30;;;;;;5015207;28;20045;-86
2022/01/17 03:13:37;;;;;;;5.10;3.45;;;-2.40;91.30;;;;;;5015978;28;20067;-88
2022/01/17 03:16:08;;;;;;;4.78;2.05;;;-2.40;91.20;;;;;;5016041;28;20503;-87
2022/01/17 03:18:37;;;;;;;6.75;1.98;;;-2.40;91.30;;;;;;5018973;28;20029;-88
2022/01/17 03:21:04;;;;;;;4.82;2.05;;;-2.40;91.20;;;;;;5018055;28;20443;-87
2022/01/17 03:23:30;;;;;;;2.75;1.70;;;-2.40;91.20;;;;;;5016980;28;20033;-88
2022/01/17 03:25:56;;;;;;;4.32;1.80;;;-2.40;91.10;;;;;;5026807;28;20046;-87
2022/01/17 03:28:23;;;;;;;3.78;2.03;;;-2.40;91.20;;;;;;5000036;28;20034;-87
2022/01/17 03:30:49;;;;;;;6.07;1.85;;;-2.40;91.20;;;;;;5013681;28;20026;-87
2022/01/17 03:33:17;;;;;;;4.90;1.70;;;-2.40;91.20;;;;;;5014645;28;20034;-86
2022/01/17 03:35:44;;;;;;;1.90;1.42;;;-2.40;91.10;;;;;;5000526;28;20101;-86
2022/01/17 03:38:14;;;;;;;3.90;2.17;;;-2.40;91.20;;;;;;5036653;28;20054;-87
2022/01/17 03:40:40;;;;;;;3.03;1.52;;;-2.40;91.20;;;;;;5048247;28;20026;-88
2022/01/17 03:43:07;;;;;;;3.85;2.15;;;-2.40;91.10;;;;;;5043382;28;20024;-88
2022/01/17 03:45:33;;;;;;;4.70;2.10;;;-2.40;91.10;;;;;;5021184;28;20033;-87
2022/01/17 03:47:59;;;;;;;6.63;2.42;;;-2.40;91.10;;;;;;5037770;28;20059;-86
2022/01/17 03:50:27;;;;;;;4.40;1.85;;;-2.50;91.10;;;;;;5037441;28;20033;-87
2022/01/17 03:52:52;;;;;;;4.57;2.22;;;-2.40;91.20;;;;;;5059457;28;20025;-90
2022/01/17 03:55:21;;;;;;;3.78;2.15;;;-2.50;91.00;;;;;;5055968;28;20025;-84
2022/01/17 03:57:47;;;;;;;5.07;2.45;;;-2.50;91.10;;;;;;5067083;28;20013;-85
2022/01/17 04:00:17;;;;;;;3.50;1.70;;;-2.50;91.10;;;;;;5056225;28;20024;-88
2022/01/17 04:02:43;;;;;;;4.25;2.42;;;-2.50;91.10;;;;;;5058191;28;20088;-89
2022/01/17 04:05:09;;;;;;;5.10;2.33;;;-2.50;91.20;;;;;;5057129;28;20025;-88
2022/01/17 04:07:35;;;;;;;4.87;1.97;;;-2.50;91.20;;;;;;5056400;28;20025;-85
2022/01/17 04:10:02;;;;;;;3.97;2.33;;;-2.50;91.20;;;;;;5053480;28;20033;-86
2022/01/17 04:12:28;;;;;;;5.30;2.10;;;-2.60;91.10;;;;;;5054048;28;20032;-86
2022/01/17 04:14:55;;;;;;;3.08;1.70;;;-2.60;91.10;;;;;;5056095;28;20037;-85
2022/01/17 04:17:26;;;;;;;6.22;1.85;;;-2.60;91.20;;;;;;5065293;28;20021;-85
2022/01/17 04:19:59;;;;;;;4.78;1.83;;;-2.60;91.20;;;;;;5087035;28;20059;-86
2022/01/17 04:22:25;;;;;;;3.38;1.80;;;-2.60;91.30;;;;;;5091203;28;20041;-88
2022/01/17 04:24:51;;;;;;;4.32;1.92;;;-2.60;91.30;;;;;;5095774;28;20029;-86
2022/01/17 04:27:18;;;;;;;6.43;2.28;;;-2.60;91.30;;;;;;5096322;28;20028;-87
2022/01/17 04:29:44;;;;;;;5.10;1.88;;;-2.60;91.30;;;;;;5094488;28;20044;-86
2022/01/17 04:32:10;;;;;;;5.35;2.50;;;-2.60;91.30;;;;;;5079485;28;20036;-86
2022/01/17 04:34:36;;;;;;;5.68;2.13;;;-2.60;91.20;;;;;;5076806;28;20028;-87
2022/01/17 04:37:02;;;;;;;4.45;2.33;;;-2.70;91.20;;;;;;5064268;28;20028;-88
2022/01/17 04:39:28;;;;;;;9.45;2.15;;;-2.70;91.20;;;;;;5075576;28;20071;-87
2022/01/17 04:41:56;;;;;;;5.18;2.08;;;-2.60;91.30;;;;;;5095658;28;20029;-87
2022/01/17 04:47:07;;;;;;;8.88;4.50;;;-2.60;91.50;;;;;;5079911;28;20067;-89
2022/01/17 04:49:39;;;;;;;6.15;2.38;;;-2.60;91.50;;;;;;5064158;28;20440;-90
2022/01/17 04:52:12;;;;;;;6.22;2.28;;;-2.70;91.80;;;;;;5070732;28;20029;-88
2022/01/17 04:54:42;;;;;;;5.03;1.92;;;-2.80;92.10;;;;;;5074560;28;20088;-88
2022/01/17 04:57:10;;;;;;;6.22;2.40;;;-2.80;92.40;;;;;;5069765;28;20021;-89
2022/01/17 04:59:36;;;;;;;;;;;-2.80;92.80;;;;;;5047943;28;20117;-88
2022/01/17 05:02:03;;;;;;;5.60;3.03;;;-2.90;92.80;;;;;;5041235;28;19912;-89
2022/01/17 05:04:29;;;;;;;;;;;-2.90;93.40;;;;;;5038975;28;20037;-88
2022/01/17 05:06:55;;;;;;;5.70;3.42;;;-2.90;93.60;;;;;;5037425;28;20393;-89
2022/01/17 05:09:20;;;;;;;5.60;2.50;;;-3.00;94.00;;;;;;5037940;28;20041;-87
2022/01/17 05:11:46;;;;;;;11.45;3.35;;;-3.00;94.20;;;;;;5038281;28;20037;-88
2022/01/17 05:14:13;;;;;;;6.35;2.13;;;-3.00;94.40;;;;;;5041216;28;20096;-86
2022/01/17 05:16:48;;;;;;;3.67;2.60;;;-2.90;94.60;;;;;;5036891;28;20115;-87
2022/01/17 05:21:58;;;;;;;5.28;3.50;;;-3.00;94.90;;;;;;5022838;28;20446;-86
2022/01/17 05:24:24;;;;;;;3.65;2.28;;;-3.00;95.30;;;;;;5021170;28;20029;-87
2022/01/17 05:26:50;;;;;;;8.18;2.67;;;-3.00;95.70;;;;;;5018792;28;20101;-87
2022/01/17 05:29:16;;;;;;;5.80;2.88;;;-3.00;95.90;;;;;;5034247;28;20030;-88
2022/01/17 05:31:41;;;;;;;8.70;2.80;;;-3.00;96.00;;;;;;5036666;28;20022;-87
2022/01/17 05:34:07;;;;;;;4.50;2.70;;;-3.00;96.10;;;;;;5051913;28;20041;-87
2022/01/17 05:36:38;;;;;;;8.23;2.70;;;-3.00;96.10;;;;;;5045739;28;20044;-92
2022/01/17 05:39:06;;;;;;;5.53;2.65;;;-3.00;96.30;;;;;;5055748;28;20052;-92
2022/01/17 05:41:33;;;;;;;4.70;2.47;;;-3.00;96.40;;;;;;5025304;28;20531;-89
2022/01/17 05:44:00;;;;;;;5.60;2.53;;;-3.00;96.50;;;;;;5021594;28;20052;-89
2022/01/17 05:46:26;;;;;;;4.55;2.28;;;-3.00;96.70;;;;;;5035456;28;20161;-87
2022/01/17 05:48:52;;;;;;;8.90;3.85;;;-3.00;96.80;;;;;;5036735;28;20144;-86
2022/01/17 05:51:17;;;;;;;8.35;4.25;;;-3.00;96.90;;;;;;5041693;28;20163;-88
2022/01/17 05:53:43;;;;;;;6.45;2.90;;;-2.90;97.00;;;;;;5041270;28;20056;-90
2022/01/17 05:56:09;;;;;;;9.98;3.33;;;-3.00;97.10;;;;;;5050644;28;20040;-91
2022/01/17 05:58:35;;;;;;;4.50;2.90;;;-2.90;97.20;;;;;;5060011;28;20026;-88
2022/01/17 06:01:01;;;;;;;9.90;3.75;;;-2.90;97.20;;;;;;5050455;28;20034;-88
2022/01/17 06:03:27;;;;;;;7.47;2.80;;;-2.90;97.40;;;;;;5038500;28;20098;-89
2022/01/17 06:05:58;;;;;;;8.70;3.25;;;-2.90;97.60;;;;;;5030653;28;20025;-92
2022/01/17 06:08:24;;;;;;;12.13;3.08;;;-2.90;97.70;;;;;;5043799;28;20057;-90
2022/01/17 06:10:52;;;;;;;7.45;4.50;;;-2.90;97.60;;;;;;5042900;28;20546;-90
2022/01/17 06:13:18;;;;;;;6.75;3.55;;;-2.80;97.80;;;;;;5025065;28;20037;-90
2022/01/17 06:15:44;;;;;;;7.78;4.45;;;-2.80;98.00;;;;;;5044370;28;20018;-88
2022/01/17 06:18:10;;;;;;;8.95;4.10;;;-2.80;98.00;;;;;;5031891;28;20089;-90
2022/01/17 06:20:37;;;;;;;8.50;3.28;;;-2.80;98.10;;;;;;5047463;28;20146;-88
2022/01/17 06:23:03;;;;;;;7.13;4.30;;;-2.70;98.10;;;;;;5068849;28;20069;-88
2022/01/17 06:25:29;;;;;;;11.80;3.70;;;-2.70;97.90;;;;;;5062186;28;20478;-88
2022/01/17 06:27:55;;;;;;;10.35;3.92;;;-2.70;98.10;;;;;;5070143;28;20049;-89
2022/01/17 06:30:21;;;;;;;6.65;2.65;;;-2.70;98.30;;;;;;5044973;28;20041;-89
2022/01/17 06:32:47;;;;;;;7.60;4.10;;;-2.70;98.40;;;;;;5061970;28;20052;-90
2022/01/17 06:35:13;;;;;;;7.57;4.07;;;-2.60;98.50;;;;;;5045535;28;20028;-84
2022/01/17 06:37:40;;;;;;;9.35;4.78;;;-2.60;98.40;;;;;;5074015;28;20033;-89
2022/01/17 06:40:07;;;;;;;8.32;3.33;;;-2.60;98.50;;;;;;5068118;28;20037;-87
2022/01/17 06:42:34;;;;;;;10.32;3.47;;;-2.60;98.50;;;;;;5063381;28;20463;-88
2022/01/17 06:45:04;;;;;;;10.35;4.03;;;-2.60;98.40;;;;;;5040909;28;20086;-86
2022/01/17 06:47:34;;;;;;;5.72;3.25;;;-2.60;98.40;;;;;;5057454;28;20033;-86
2022/01/17 06:50:00;;;;;;;5.47;3.13;;;-2.70;98.40;;;;;;5056872;28;20033;-86
2022/01/17 06:52:29;;;;;;;9.73;3.67;;;-2.70;98.50;;;;;;5058646;28;20421;-88
2022/01/17 06:54:56;;;;;;;6.00;3.38;;;-2.80;98.90;;;;;;5038550;28;20060;-85
2022/01/17 06:57:23;;;;;;;6.57;2.55;;;-2.80;98.80;;;;;;5055832;28;20083;-90
2022/01/17 06:59:50;;;;;;;10.27;4.40;;;-2.80;98.80;;;;;;5037220;28;20359;-84
2022/01/17 07:02:15;;;;;;;8.02;3.92;;;-2.90;98.80;;;;;;5037627;28;20032;-85
2022/01/17 07:04:42;;;;;;;8.65;3.63;;;-2.90;99.10;;;;;;5054441;28;20021;-84
2022/01/17 07:07:08;;;;;;;9.25;4.05;;;-2.80;99.20;;;;;;5055987;28;20021;-89
2022/01/17 07:09:36;;;;;;;7.35;3.97;;;-2.80;99.20;;;;;;5061768;28;20404;-88
2022/01/17 07:12:03;;;;;;;11.32;4.13;;;-2.80;99.50;;;;;;5023549;28;20032;-82
2022/01/17 07:14:29;;;;;;;6.80;3.63;;;-2.80;99.40;;;;;;5044204;28;20056;-84
2022/01/17 07:16:56;;;;;;;10.77;5.32;;;-2.70;99.60;;;;;;5053040;28;20171;-85
2022/01/17 07:19:23;;;;;;;12.18;4.55;;;-2.70;99.90;;;;;;5054931;28;20025;-85
2022/01/17 07:21:50;;;;;;;8.15;3.35;;;-2.70;99.80;;;;;;5054233;28;20100;-84
2022/01/17 07:24:16;;;;;;;12.15;4.80;;;-2.60;99.70;;;;;;5054657;28;20056;-87
2022/01/17 07:26:42;;;;;;;12.93;5.30;;;-2.70;99.60;;;;;;5054434;28;20409;-85
2022/01/17 07:29:08;;;;;;;7.90;3.80;;;-2.60;99.80;;;;;;5054049;28;20037;-83
2022/01/17 07:31:36;;;;;;;9.60;5.30;;;-2.60;99.90;;;;;;5040031;28;20393;-82
2022/01/17 07:34:01;;;;;;;6.97;4.60;;;-2.60;99.90;;;;;;5040196;28;20036;-85
2022/01/17 07:36:28;;;;;;;6.22;4.35;;;-2.60;99.60;;;;;;5041356;28;20444;-85
2022/01/17 07:38:54;;;;;;;9.65;4.80;;;-2.60;99.80;;;;;;5064792;28;20033;-84
2022/01/17 07:41:19;;;;;;;11.70;4.55;;;-2.60;99.70;;;;;;5074388;28;20066;-86
2022/01/17 07:43:47;;;;;;;12.15;6.07;;;-2.50;99.90;;;;;;5069720;28;20088;-83
2022/01/17 07:46:24;;;;;;;11.48;6.25;;;-2.50;99.90;;;;;;5063357;28;20029;-84
2022/01/17 07:51:25;;;;;;;11.38;5.63;;;-2.50;99.60;;;;;;5056332;28;20181;-83
2022/01/17 07:53:51;;;;;;;14.07;6.45;;;-2.40;99.70;;;;;;5054549;28;20017;-84
2022/01/17 07:56:17;;;;;;;14.40;6.13;;;-2.40;99.90;;;;;;5054939;28;20466;-85
2022/01/17 07:58:44;;;;;;;8.73;5.15;;;-2.40;99.70;;;;;;5054857;28;20032;-85
2022/01/17 08:01:10;;;;;;;17.20;6.57;;;-2.40;99.90;;;;;;5054655;28;20025;-85
2022/01/17 08:03:36;;;;;;;13.60;8.30;;;-2.40;99.80;;;;;;5054613;28;20393;-84
2022/01/17 08:06:02;;;;;;;13.35;6.13;;;-2.40;99.90;;;;;;5054783;28;20024;-84
2022/01/17 08:08:28;;;;;;;8.10;4.03;;;-2.30;99.90;;;;;;5058847;28;20033;-82
2022/01/17 08:10:54;;;;;;;14.35;6.20;;;-2.30;99.90;;;;;;5071922;28;20035;-84
2022/01/17 08:13:20;;;;;;;39.60;9.93;;;-2.30;99.90;;;;;;5059932;28;20079;-86
2022/01/17 08:15:46;;;;;;;9.00;4.95;;;-2.30;99.90;;;;;;5055646;28;20389;-85
2022/01/17 08:18:13;;;;;;;7.78;3.78;;;-2.30;99.90;;;;;;5054743;28;20024;-86
2022/01/17 08:20:40;;;;;;;10.13;4.00;;;-2.20;99.90;;;;;;5061955;28;20037;-84
2022/01/17 08:23:06;;;;;;;5.57;3.97;;;-2.20;99.70;;;;;;5051688;28;20081;-84
2022/01/17 08:25:32;;;;;;;12.45;5.38;;;-2.30;99.40;;;;;;5054651;28;20022;-83
2022/01/17 08:27:58;;;;;;;13.30;5.20;;;-2.30;99.40;;;;;;5050071;28;20036;-81
2022/01/17 08:30:24;;;;;;;10.30;5.68;;;-2.40;99.30;;;;;;5039978;28;20021;-86
2022/01/17 08:32:51;;;;;;;12.85;5.63;;;-2.40;99.70;;;;;;5021493;28;20051;-86
2022/01/17 08:35:19;;;;;;;10.77;5.35;;;-2.30;99.60;;;;;;5041504;28;20044;-85
2022/01/17 08:37:44;;;;;;;10.50;5.28;;;-2.30;99.60;;;;;;5051578;28;20037;-84
2022/01/17 08:40:11;;;;;;;10.73;4.80;;;-2.30;99.70;;;;;;5044058;28;20032;-87
2022/01/17 08:42:38;;;;;;;10.82;6.40;;;-2.20;99.90;;;;;;5044261;28;20026;-85
2022/01/17 08:45:11;;;;;;;8.60;5.03;;;-2.20;99.80;;;;;;5059610;28;20059;-86
2022/01/17 08:47:37;;;;;;;7.95;5.57;;;-2.20;99.90;;;;;;5079367;28;20026;-85
2022/01/17 08:50:05;;;;;;;11.75;5.57;;;-2.20;99.80;;;;;;5065172;28;20041;-85
2022/01/17 08:52:32;;;;;;;16.33;6.95;;;-2.10;99.70;;;;;;5023080;28;20022;-86
2022/01/17 08:54:58;;;;;;;15.43;6.45;;;-2.10;99.60;;;;;;5038709;28;20022;-83
2022/01/17 08:57:25;;;;;;;10.63;7.55;;;-2.00;99.30;;;;;;5038553;28;20040;-85
2022/01/17 08:59:51;;;;;;;8.75;5.18;;;-2.00;99.20;;;;;;5019617;28;20037;-87
2022/01/17 09:02:17;;;;;;;12.60;5.53;;;-2.00;99.00;;;;;;5018912;28;20084;-84
2022/01/17 09:04:44;;;;;;;10.90;6.32;;;-2.00;98.90;;;;;;5020180;28;20075;-85
2022/01/17 09:07:13;;;;;;;10.70;7.38;;;-2.00;98.70;;;;;;5038100;28;20018;-86
2022/01/17 09:09:40;;;;;;;13.68;6.65;;;-2.00;98.60;;;;;;5037566;28;20907;-84
2022/01/17 09:12:08;;;;;;;10.73;6.32;;;-2.00;98.40;;;;;;5015634;28;20060;-85
2022/01/17 09:14:35;;;;;;;9.70;5.75;;;-2.00;98.40;;;;;;5034938;28;20030;-85
2022/01/17 09:17:02;;;;;;;15.02;6.68;;;-2.00;98.60;;;;;;5036836;28;20331;-85
2022/01/17 09:19:28;;;;;;;7.50;5.60;;;-2.00;98.70;;;;;;5035565;28;20124;-86
2022/01/17 09:21:54;;;;;;;15.75;6.97;;;-2.00;98.70;;;;;;5053657;28;20521;-85
2022/01/17 09:24:20;;;;;;;16.73;8.10;;;-1.90;98.80;;;;;;5056633;28;20040;-85
2022/01/17 09:26:46;;;;;;;10.18;6.15;;;-1.90;98.80;;;;;;5056271;28;20025;-84
2022/01/17 09:29:13;;;;;;;10.65;7.43;;;-1.90;98.90;;;;;;5056601;28;20417;-85
2022/01/17 09:31:39;;;;;;;10.73;5.97;;;-1.90;98.90;;;;;;5055173;28;20029;-86
2022/01/17 09:34:04;;;;;;;13.88;7.10;;;-1.90;98.90;;;;;;5056525;28;20037;-85
2022/01/17 09:36:33;;;;;;;12.13;7.20;;;-1.90;98.90;;;;;;5054936;28;20096;-85
2022/01/17 09:39:00;;;;;;;12.68;8.52;;;-1.80;98.90;;;;;;5039695;28;20473;-85
2022/01/17 09:41:26;;;;;;;16.45;8.52;;;-1.80;99.00;;;;;;5057978;28;20029;-87
2022/01/17 09:43:52;;;;;;;10.68;7.80;;;-1.80;98.90;;;;;;5061386;28;20029;-86
2022/01/17 09:46:23;;;;;;;13.00;8.27;;;-1.80;98.70;;;;;;5058487;28;20363;-87
2022/01/17 09:48:51;;;;;;;13.32;8.38;;;-1.80;98.60;;;;;;5058007;28;20037;-86
2022/01/17 09:54:04;;;;;;;16.42;7.65;;;-1.80;98.60;;;;;;5046798;28;19920;-83
2022/01/17 09:56:31;;;;;;;9.85;6.95;;;-1.80;98.60;;;;;;5054305;28;20057;-83
2022/01/17 09:58:58;;;;;;;11.73;7.57;;;-1.80;98.50;;;;;;5051930;28;20025;-85
2022/01/17 10:01:25;;;;;;;13.50;7.68;;;-1.80;98.60;;;;;;5054510;28;20096;-84
2022/01/17 10:03:56;;;;;;;15.50;8.82;;;-1.80;98.70;;;;;;5053860;28;20056;-86
2022/01/17 10:06:23;;;;;;;16.30;8.40;;;-1.70;98.80;;;;;;5037984;28;20038;-86
2022/01/17 10:09:07;;;;;;;13.37;9.00;;;-1.70;98.90;;;;;;5035549;28;20034;-86
2022/01/17 10:11:33;;;;;;;16.50;8.48;;;-1.70;99.10;;;;;;5036555;28;20280;-85
2022/01/17 10:14:01;;;;;;;18.77;7.88;;;-1.70;99.20;;;;;;5038141;28;20096;-86
2022/01/17 10:16:29;;;;;;;13.13;7.85;;;-1.70;99.20;;;;;;5040056;28;20474;-84
2022/01/17 10:19:04;;;;;;;14.63;8.88;;;-1.60;99.20;;;;;;5036757;28;20533;-87
2022/01/17 10:21:35;;;;;;;10.10;7.93;;;-1.60;99.30;;;;;;5031609;28;20529;-86
2022/01/17 10:37:19;;;;;;;10.33;6.73;;;-1.60;99.50;;;;;;5022123;28;20097;-84
2022/01/17 10:39:55;;;;;;;19.92;9.77;;;-1.60;99.50;;;;;;5036673;28;20331;-86
2022/01/17 10:42:27;;;;;;;19.83;9.73;;;-1.60;99.40;;;;;;5021901;28;20022;-85
2022/01/17 10:44:53;;;;;;;17.67;8.50;;;-1.60;99.50;;;;;;5019426;28;20612;-84
2022/01/17 10:47:26;;;;;;;15.05;8.13;;;-1.60;99.60;;;;;;5028651;28;20030;-84
2022/01/17 10:49:59;;;;;;;15.10;8.75;;;-1.60;99.40;;;;;;5029063;28;20025;-86
2022/01/17 10:52:34;;;;;;;18.27;8.98;;;-1.60;99.50;;;;;;5049883;28;20099;-85
2022/01/17 10:55:28;;;;;;;15.43;7.78;;;-1.60;99.60;;;;;;5076338;28;20025;-85
2022/01/17 10:57:56;;;;;;;16.92;7.95;;;-1.60;99.40;;;;;;5055199;28;20470;-86
2022/01/17 11:00:26;;;;;;;16.90;8.48;;;-1.70;99.40;;;;;;5062170;28;20021;-85
2022/01/17 11:03:05;;;;;;;15.73;7.93;;;-1.70;99.60;;;;;;5025823;28;20116;-85
2022/01/17 11:05:32;;;;;;;13.55;8.40;;;-1.70;99.40;;;;;;5057710;28;20041;-87
2022/01/17 11:08:01;;;;;;;16.98;8.00;;;-1.80;99.20;;;;;;5059282;28;20021;-83
2022/01/17 11:10:36;;;;;;;17.58;8.00;;;-1.80;99.60;;;;;;5042780;28;20135;-85
2022/01/17 11:13:04;;;;;;;13.55;8.85;;;-1.80;99.60;;;;;;5043687;28;20043;-86
2022/01/17 11:15:33;;;;;;;13.07;7.32;;;-1.80;99.70;;;;;;5040048;28;20024;-85
2022/01/17 11:18:08;;;;;;;14.95;9.02;;;-1.80;99.90;;;;;;5036131;28;20017;-86
2022/01/17 11:20:34;;;;;;;18.75;9.00;;;-1.80;99.80;;;;;;5022991;28;20593;-84
2022/01/17 11:23:01;;;;;;;14.68;9.35;;;-1.80;99.80;;;;;;5053803;28;20532;-84
2022/01/17 11:25:31;;;;;;;14.13;9.35;;;-1.80;99.80;;;;;;5037802;28;20030;-87
2022/01/17 11:27:58;;;;;;;9.95;5.10;;;-1.70;99.90;;;;;;5036248;28;20025;-83
2022/01/17 11:30:25;;;;;;;17.35;10.05;;;-1.70;99.90;;;;;;5053537;28;20438;-87
2022/01/17 11:32:54;;;;;;;16.45;7.30;;;-1.70;99.60;;;;;;5056108;28;20025;-87
2022/01/17 11:35:20;;;;;;;23.33;10.98;;;-1.70;99.10;;;;;;5054916;28;20025;-87
2022/01/17 11:37:54;;;;;;;20.33;7.78;;;-1.70;99.50;;;;;;5054444;28;20017;-86
2022/01/17 11:40:22;;;;;;;14.70;8.73;;;-1.70;99.80;;;;;;5039302;28;20393;-84
2022/01/17 11:42:51;;;;;;;13.25;8.48;;;-1.70;99.50;;;;;;5055010;28;20107;-83
2022/01/17 11:45:29;;;;;;;16.27;8.98;;;-1.70;99.60;;;;;;5058434;28;20017;-83
2022/01/17 11:48:08;;;;;;;16.90;9.20;;;-1.70;99.70;;;;;;5074731;28;20146;-83
2022/01/17 11:50:43;;;;;;;12.57;6.43;;;-1.80;99.60;;;;;;5077961;28;20032;-84
2022/01/17 11:53:12;;;;;;;16.92;9.65;;;-1.80;99.90;;;;;;5084605;28;20031;-83
2022/01/17 11:58:29;;;;;;;13.82;9.35;;;-1.80;99.90;;;;;;5075042;28;20051;-83
2022/01/17 12:00:59;;;;;;;16.63;9.68;;;-1.80;99.90;;;;;;5074370;28;20028;-84
2022/01/17 12:03:31;;;;;;;19.38;8.73;;;-1.80;99.90;;;;;;5067455;28;20028;-86
2022/01/17 12:06:02;;;;;;;20.05;10.35;;;-1.80;99.90;;;;;;5036640;28;20104;-88
2022/01/17 12:08:30;;;;;;;16.73;7.85;;;-1.80;99.90;;;;;;5038081;28;20025;-85
2022/01/17 12:11:00;;;;;;;15.20;9.60;;;-1.80;99.90;;;;;;5054841;28;20032;-86
2022/01/17 12:13:37;;;;;;;18.27;8.52;;;-1.80;99.90;;;;;;5038253;28;20035;-86
2022/01/17 12:16:22;;;;;;;15.50;9.25;;;-1.80;99.90;;;;;;5071559;28;20077;-82
2022/01/17 12:19:07;;;;;;;16.02;9.43;;;-1.80;99.90;;;;;;5071217;28;20064;-84
2022/01/17 12:22:01;;;;;;;11.82;6.53;;;-1.80;99.90;;;;;;5072230;28;20056;-83
2022/01/17 12:24:30;;;;;;;18.98;8.70;;;-1.80;99.90;;;;;;4977322;28;20035;-85
2022/01/17 12:27:01;;;;;;;20.13;10.18;;;-1.80;99.90;;;;;;4974352;28;20175;-85
2022/01/17 12:30:10;;;;;;;17.30;9.63;;;-1.80;99.90;;;;;;4973174;28;20043;-83
2022/01/17 12:32:39;;;;;;;22.10;10.40;;;-1.80;99.90;;;;;;4968818;28;20455;-84
2022/01/17 12:35:05;;;;;;;16.90;10.02;;;-1.80;99.90;;;;;;4973210;28;20035;-84
2022/01/17 12:37:56;;;;;;;13.45;8.20;;;-1.80;99.90;;;;;;4972393;28;20057;-86
2022/01/17 12:40:37;;;;;;;14.05;8.02;;;-1.80;99.90;;;;;;4978749;28;20030;-83
2022/01/17 12:43:15;;;;;;;15.68;10.65;;;-1.80;99.90;;;;;;4975777;28;20078;-85
2022/01/17 12:45:41;;;;;;;22.95;10.20;;;-1.80;99.90;;;;;;4992819;28;20419;-84
2022/01/17 12:48:12;;;;;;;10.88;6.70;;;-1.80;99.90;;;;;;4993222;28;20031;-85
2022/01/17 12:50:40;;;;;;;19.13;9.63;;;-1.80;99.90;;;;;;4977889;28;20058;-86
2022/01/17 12:53:07;;;;;;;13.98;7.00;;;-1.70;99.90;;;;;;4987620;28;20427;-84
2022/01/17 12:55:37;;;;;;;11.80;7.00;;;-1.80;99.90;;;;;;4998760;28;20042;-86
2022/01/17 12:58:12;;;;;;;18.50;11.02;;;-1.80;99.90;;;;;;4976455;28;20527;-85
2022/01/17 13:00:43;;;;;;;16.67;9.48;;;-1.80;99.90;;;;;;5002452;28;20042;-87
2022/01/17 13:03:12;;;;;;;18.02;10.05;;;-1.80;99.90;;;;;;5069696;28;20036;-85
2022/01/17 13:05:39;;;;;;;10.75;6.85;;;-1.80;99.90;;;;;;5077214;28;20045;-84
2022/01/17 13:08:06;;;;;;;15.10;9.10;;;-1.90;99.90;;;;;;5053062;28;20092;-85
2022/01/17 13:10:32;;;;;;;25.37;13.87;;;-1.90;99.90;;;;;;5033070;28;20029;-85
2022/01/17 13:13:00;;;;;;;22.55;9.70;;;-1.80;99.90;;;;;;5010915;28;20049;-86
2022/01/17 13:15:26;;;;;;;14.82;10.13;;;-1.80;99.90;;;;;;5019592;28;20021;-87
2022/01/17 13:17:53;;;;;;;15.73;9.80;;;-1.70;99.90;;;;;;5040085;28;20241;-86
2022/01/17 13:20:22;;;;;;;17.48;12.05;;;-1.70;99.90;;;;;;5025175;28;20044;-84
2022/01/17 13:23:02;;;;;;;21.88;9.40;;;-1.70;99.90;;;;;;5058930;28;20039;-87